< Cyclone 195506 1955 Season Cyclone 195509 >
Cyclone 195507 (unnamed)
General InformationTrack Information on Google Maps || ResourceGoogle EarthGE AnimationAtom FeedGeoJSON
Detalied Best Track (Time Zone = UTC)
Year Month Day Hour Lat. Long. Pressure (hPa) Wind (kt) Class Image Chart
1955 3 1 23 -17.8 169.0 984 0 0 -- --
1955 3 2 23 -19.1 165.4 970 0 0 -- --
1955 3 3 23 -20.3 165.0 970 0 0 -- --
1955 3 4 23 -22.4 161.0 970 0 0 -- --
1955 3 5 05 -22.9 160.1 970 0 0 -- --
1955 3 5 23 -22.8 157.3 970 0 0 -- --
1955 3 6 23 -21.9 152.0 968 0 0 -- --
1955 3 7 00 -21.9 151.6 967.5 0 0 -- --
1955 3 7 02 -21.8 151.2 967 0 0 -- --
1955 3 7 03 -21.8 151.0 966.5 0 0 -- --
1955 3 7 04 -21.7 150.7 966 0 0 -- --
1955 3 7 06 -21.7 150.3 965.5 0 0 -- --
1955 3 7 08 -21.6 149.9 965 0 0 -- --
1955 3 7 10 -21.7 149.6 968.75 0 0 -- --
1955 3 7 12 -21.9 149.2 972.5 0 0 -- --
1955 3 7 14 -22.0 148.9 976.25 0 0 -- --
1955 3 7 23 -22.6 147.6 980 0 0 -- --
1955 3 8 23 -23.0 145.2 992 0 0 -- --
1955 3 9 23 -20.6 147.3 992 0 0 -- --
1955 3 10 23 -20.3 147.1 992 0 0 -- --
1955 3 11 23 -19.4 146.5 992 0 0 -- --
1955 3 12 23 -16.7 149.4 998 0 0 -- --
1955 3 14 23 -15.4 146.5 995 0 0 -- --
1955 3 15 23 -16.5 146.3 997 0 0 -- --
1955 3 16 23 -17.4 146.1 998 0 0 -- --
1955 3 17 23 -20.2 144.5 1003 0 0 -- --
1955 3 18 23 -23.4 138.6 1006 0 0 -- --
< Cyclone 195506 1955 Season Cyclone 195509 >

Help